ZSPD/PVG METAR and TAF weather

Enter ICAO airport designator
Station Type Date Time Source
ZSPD METAR 2021/09/28 05:00 UTC NOAA

ZSPD 280500Z 11003MPS 060V150 9999 FEW020 30/23 Q1010 NOSIG


Station Type Date Time Source
ZSPD Decoded METAR 2021/09/28 05:00 UTC NOAA

Shanghai / Pudong, China (ZSPD) 31-07N 121-46E
Sep 28, 2021 - 01:00 AM EDT / 2021.09.28 0500 UTC
Wind: from the ESE (110 degrees) at 7 MPH (6 KT) (direction variable):0
Visibility: greater than 7 mile(s):0
Sky conditions: mostly clear
Temperature: 86 F (30 C)
Heat index: 93.4 F (34.1 C):1
Dew Point: 73 F (23 C)
Relative Humidity: 66%
Pressure (altimeter): 29.83 in. Hg (1010 hPa)
ob: ZSPD 280500Z 11003MPS 060V150 9999 FEW020 30/23 Q1010 NOSIG
cycle: 5

Station Type Date Time Source
ZSPD TAF 2021/09/28 06:03 UTC NOAA

TAF ZSPD 280306Z 2806/2906 16004MPS 6000 SCT020 TX32/2806Z TN24/2820Z

Example: see airport list